Time;durP1;ratioP1;P1;durP2;ratioP2;P2;SDS_P1;SDS_P2;PMS_P1;PMS_P2;Temp;Humidity;BMP_temperature;BMP_pressure;BME280_temperature;BME280_humidity;BME280_pressure;Samples;Min_cycle;Max_cycle;Signal;HPM_P1;HPM_P2
2022/11/03 07:12:41;;;;;;;;;;;10.60;99.90;;;;;;5514168;23;19958;-72
2022/11/03 07:44:54;;;;;;;;;;;10.70;99.90;;;;;;4881928;29;19935;-74
2022/11/03 07:47:27;;;;;;;;;;;10.80;99.90;;;;;;4866198;29;19920;-72
2022/11/03 08:01:27;;;;;;;;;;;11.10;99.90;;;;;;5397508;23;19938;-75
2022/11/03 09:14:01;;;;;;;;;;;12.00;99.90;;;;;;5871275;23;20140;-74
2022/11/03 09:44:53;;;;;;;;;;;12.30;99.90;;;;;;5915875;23;20470;-78
2022/11/03 09:47:47;;;;;;;;;;;12.20;99.90;;;;;;4905031;29;20391;-77
2022/11/03 10:35:35;;;;;;;;;;;12.70;99.90;;;;;;4908826;29;19918;-76
2022/11/03 10:38:21;;;;;;;;;;;12.80;99.90;;;;;;4868414;29;19924;-74
2022/11/03 10:40:46;;;;;;;;;;;12.70;99.90;;;;;;4881092;29;19987;-71
2022/11/03 10:43:12;;;;;;;;;;;12.80;99.90;;;;;;4884265;29;19923;-77
2022/11/03 10:45:37;;;;;;;;;;;12.70;99.90;;;;;;4883527;29;19920;-72
2022/11/03 10:48:04;;;;;;;;;;;12.70;99.90;;;;;;4883298;29;19923;-73
2022/11/03 10:50:30;;;;;;;;;;;12.70;99.90;;;;;;4884841;29;19924;-73
2022/11/03 10:52:56;;;;;;;;;;;12.70;99.90;;;;;;4876644;29;19947;-71
2022/11/03 10:55:22;;;;;;;;;;;12.70;99.90;;;;;;4866662;29;19928;-72
2022/11/03 10:57:50;;;;;;;;;;;12.80;99.90;;;;;;4850143;29;19924;-74
2022/11/03 11:00:16;;;;;;;;;;;12.90;99.90;;;;;;4865721;29;20011;-72
2022/11/03 11:02:43;;;;;;;;;;;12.90;99.90;;;;;;4867288;29;20385;-72
2022/11/03 11:05:18;;;;;;;;;;;13.10;99.90;;;;;;4865979;29;20063;-74
2022/11/03 11:07:44;;;;;;;;;;;13.20;99.90;;;;;;4865131;29;19923;-72
2022/11/03 11:10:39;;;;;;;;;;;13.20;99.90;;;;;;4865219;29;19946;-73
2022/11/03 11:13:27;;;;;;;;;;;13.20;99.90;;;;;;4858371;29;19924;-80
2022/11/03 11:15:54;;;;;;;;;;;13.30;99.90;;;;;;4848613;29;19931;-74
2022/11/03 11:18:26;;;;;;;;;;;13.20;99.90;;;;;;4867378;29;19919;-76
2022/11/03 11:20:51;;;;;;;;;;;13.30;99.90;;;;;;4893306;29;19984;-73
2022/11/03 11:23:26;;;;;;;;;;;13.30;99.90;;;;;;4897900;29;20261;-73
2022/11/03 11:26:10;;;;;;;;;;;13.10;99.90;;;;;;4898226;29;20420;-72
2022/11/03 11:28:36;;;;;;;;;;;13.10;99.90;;;;;;4867987;29;19946;-74
2022/11/03 11:31:21;;;;;;;;;;;13.10;99.90;;;;;;4882167;29;19985;-73
2022/11/03 11:33:47;;;;;;;;;;;13.20;99.90;;;;;;4864375;29;19932;-74
2022/11/03 11:36:23;;;;;;;;;;;13.10;99.90;;;;;;4864185;29;19991;-74
2022/11/03 11:38:54;;;;;;;;;;;13.20;99.90;;;;;;4857098;29;19927;-72
2022/11/03 11:41:39;;;;;;;;;;;13.30;99.90;;;;;;4865151;29;20388;-72
2022/11/03 11:44:37;;;;;;;;;;;13.30;99.90;;;;;;4845609;29;19963;-72
2022/11/03 11:47:17;;;;;;;;;;;13.40;99.90;;;;;;4842962;29;20276;-74
2022/11/03 11:49:43;;;;;;;;;;;13.50;99.90;;;;;;4879346;29;20272;-73
2022/11/03 11:52:08;;;;;;;;;;;13.50;99.90;;;;;;4849434;29;19923;-72
2022/11/03 11:54:34;;;;;;;;;;;13.50;99.90;;;;;;4864752;29;19943;-74
2022/11/03 11:56:59;;;;;;;;;;;13.50;99.90;;;;;;4878484;29;19930;-74
2022/11/03 11:59:28;;;;;;;;;;;13.50;99.90;;;;;;4867275;29;19971;-77
2022/11/03 12:02:01;;;;;;;;;;;13.50;99.90;;;;;;4866155;29;19924;-78
2022/11/03 12:04:29;;;;;;;;;;;13.50;99.90;;;;;;4864586;29;19924;-76
2022/11/03 12:06:56;;;;;;;;;;;13.40;99.90;;;;;;4864261;29;20416;-72
2022/11/03 12:09:23;;;;;;;;;;;13.40;99.90;;;;;;4881355;29;20021;-72
2022/11/03 12:11:50;;;;;;;;;;;13.50;99.90;;;;;;4892241;29;19931;-71
2022/11/03 12:14:22;;;;;;;;;;;13.50;99.90;;;;;;4877208;29;20006;-71
2022/11/03 12:16:48;;;;;;;;;;;13.50;99.90;;;;;;4875681;29;19961;-73
2022/11/03 12:19:32;;;;;;;;;;;13.40;99.90;;;;;;4849276;29;19967;-74
2022/11/03 12:21:57;;;;;;;;;;;13.40;99.90;;;;;;4864321;29;19924;-73
2022/11/03 12:24:29;;;;;;;;;;;13.40;99.90;;;;;;4848788;29;19919;-74
2022/11/03 12:26:55;;;;;;;;;;;13.50;99.90;;;;;;4848504;29;19955;-74
2022/11/03 12:29:20;;;;;;;;;;;13.40;99.90;;;;;;4882590;29;20038;-73
2022/11/03 12:31:46;;;;;;;;;;;13.40;99.90;;;;;;4866903;29;19923;-75
2022/11/03 12:34:12;;;;;;;;;;;13.50;99.90;;;;;;4882686;29;19930;-74
2022/11/03 12:36:37;;;;;;;;;;;13.50;99.90;;;;;;4867038;29;19983;-74
2022/11/03 12:39:03;;;;;;;;;;;13.60;99.90;;;;;;4881940;29;20010;-75
2022/11/03 12:41:28;;;;;;;;;;;13.60;99.90;;;;;;4867324;29;19971;-74
2022/11/03 12:43:57;;;;;;;;;;;13.60;99.90;;;;;;4867087;29;19923;-73
2022/11/03 12:46:22;;;;;;;;;;;13.60;99.90;;;;;;4866792;29;20370;-73
2022/11/03 12:48:48;;;;;;;;;;;13.60;99.90;;;;;;4866361;29;19923;-75
2022/11/03 12:51:23;;;;;;;;;;;13.60;99.90;;;;;;4866857;29;19987;-74
2022/11/03 12:53:49;;;;;;;;;;;13.60;99.90;;;;;;4882545;29;20325;-75
2022/11/03 12:56:15;;;;;;;;;;;13.60;99.90;;;;;;4882426;29;19989;-73
2022/11/03 12:58:41;;;;;;;;;;;13.70;99.90;;;;;;4868310;29;19955;-75
2022/11/03 13:01:07;;;;;;;;;;;13.60;99.90;;;;;;4848597;29;19924;-74
2022/11/03 13:03:33;;;;;;;;;;;13.70;99.90;;;;;;4848604;29;19924;-75
2022/11/03 13:29:02;;;;;;;;;;;;;;;;;;;;;
2022/11/03 14:23:39;;;;;;;;;;;13.30;99.90;;;;;;4788752;30;20016;-75
2022/11/03 14:26:10;;;;;;;;;;;13.50;99.90;;;;;;4791431;29;20028;-79
2022/11/03 14:31:14;;;;;;;;;;;13.40;99.90;;;;;;5312485;23;19918;-72
2022/11/03 15:30:51;;;;;;;;;;;13.20;99.90;;;;;;4826719;29;19955;-75
2022/11/03 15:33:17;;;;;;;;;;;13.30;99.90;;;;;;4826754;29;19974;-76
2022/11/03 15:36:09;;;;;;;;;;;13.20;99.90;;;;;;4863346;29;19924;-79
2022/11/03 15:38:35;;;;;;;;;;;13.20;99.90;;;;;;4871385;29;20400;-78
2022/11/03 15:41:15;;;;;;;;;;;13.20;99.90;;;;;;4849331;29;19975;-76
2022/11/03 15:43:51;;;;;;;;;;;13.10;99.90;;;;;;4864450;29;19972;-76
2022/11/03 15:46:25;;;;;;;;;;;13.00;99.90;;;;;;4848106;29;19934;-78
2022/11/03 15:48:53;;;;;;;;;;;13.00;99.90;;;;;;4849058;29;19930;-78
2022/11/03 15:51:21;;;;;;;;;;;13.10;99.90;;;;;;4849136;29;19924;-76
2022/11/03 15:54:22;;;;;;;;;;;13.00;99.90;;;;;;4870522;29;19931;-77
2022/11/03 15:56:50;;;;;;;;;;;13.00;99.90;;;;;;4873060;29;19915;-77
2022/11/03 15:59:22;;;;;;;;;;;12.90;99.90;;;;;;4872977;29;19912;-77
2022/11/03 16:01:50;;;;;;;;;;;12.90;99.90;;;;;;5053285;23;19923;-77
2022/11/03 16:04:19;;;;;;;;;;;12.90;99.90;;;;;;4886992;29;20339;-76
2022/11/03 16:10:42;;;;;;;;;;;12.80;99.90;;;;;;4840763;29;19920;-83
2022/11/03 16:13:26;;;;;;;;;;;12.90;99.90;;;;;;4811363;29;19925;-77
2022/11/03 16:15:54;;;;;;;;;;;12.90;99.90;;;;;;4826382;29;20319;-76
2022/11/03 16:18:20;;;;;;;;;;;12.90;99.90;;;;;;4826676;29;20016;-74
2022/11/03 16:20:45;;;;;;;;;;;12.80;99.90;;;;;;4839053;29;20010;-73
2022/11/03 16:23:14;;;;;;;;;;;12.70;99.90;;;;;;4882359;29;19920;-75
2022/11/03 16:25:40;;;;;;;;;;;12.80;99.90;;;;;;4851296;29;20006;-78
2022/11/03 16:28:05;;;;;;;;;;;12.70;99.90;;;;;;4861202;29;20023;-73
2022/11/03 16:30:47;;;;;;;;;;;12.60;99.90;;;;;;4866831;29;19946;-77
2022/11/03 16:33:22;;;;;;;;;;;12.70;99.90;;;;;;4862396;29;19931;-75
2022/11/03 16:36:03;;;;;;;;;;;12.70;99.90;;;;;;4864189;29;20357;-75
2022/11/03 16:41:53;;;;;;;;;;;12.70;99.90;;;;;;4811191;29;20332;-73
2022/11/03 16:44:19;;;;;;;;;;;12.50;99.90;;;;;;4840834;29;19921;-77
2022/11/03 16:46:45;;;;;;;;;;;12.50;99.90;;;;;;4857587;29;19927;-77
2022/11/03 16:49:16;;;;;;;;;;;12.50;99.90;;;;;;4867431;29;19930;-76
2022/11/03 16:51:42;;;;;;;;;;;12.50;99.90;;;;;;4852949;29;20383;-76
2022/11/03 16:54:10;;;;;;;;;;;12.50;99.90;;;;;;4863762;29;19926;-76
2022/11/03 16:56:36;;;;;;;;;;;12.60;99.90;;;;;;4863406;29;19920;-74
2022/11/03 16:59:01;;;;;;;;;;;12.50;99.90;;;;;;4856421;29;19919;-75
2022/11/03 17:02:03;;;;;;;;;;;12.50;99.90;;;;;;4853871;29;19920;-81
2022/11/03 17:04:32;;;;;;;;;;;12.50;99.90;;;;;;4848814;29;20014;-76
2022/11/03 17:06:58;;;;;;;;;;;12.40;99.90;;;;;;4866306;29;20083;-73
2022/11/03 17:09:23;;;;;;;;;;;12.50;99.90;;;;;;4895014;29;19942;-72
2022/11/03 17:11:49;;;;;;;;;;;12.40;99.90;;;;;;4868257;29;19999;-72
2022/11/03 17:14:14;;;;;;;;;;;12.50;99.90;;;;;;4862977;29;19927;-73
2022/11/03 17:16:47;;;;;;;;;;;12.50;99.90;;;;;;4858389;29;19963;-74
2022/11/03 17:19:15;;;;;;;;;;;12.40;99.90;;;;;;4847760;29;20380;-72
2022/11/03 17:31:14;;;;;;;;;;;11.90;99.90;;;;;;4897242;29;19922;-72
2022/11/03 17:33:39;;;;;;;;;;;12.40;99.90;;;;;;4866056;29;19920;-77
2022/11/03 17:36:05;;;;;;;;;;;12.50;99.90;;;;;;4877691;29;20006;-73
2022/11/03 17:41:42;;;;;;;;;;;;;;;;;;;;;
2022/11/03 18:43:50;;;;;;;;;;;11.50;99.90;;;;;;4898926;29;20472;-78
2022/11/03 18:46:19;;;;;;;;;;;11.60;99.90;;;;;;4868914;29;20017;-75
2022/11/03 18:48:45;;;;;;;;;;;11.50;99.90;;;;;;4897312;29;19920;-76
2022/11/03 18:51:10;;;;;;;;;;;11.50;99.90;;;;;;4885606;29;19942;-76
2022/11/03 18:56:58;;;;;;;;;;;11.50;99.90;;;;;;4912411;29;19911;-78
2022/11/03 18:59:38;;;;;;;;;;;11.40;99.90;;;;;;4882709;29;19919;-78
2022/11/03 19:02:35;;;;;;;;;;;11.30;99.90;;;;;;4898862;29;20448;-78
2022/11/03 19:05:06;;;;;;;;;;;11.40;99.90;;;;;;4865741;29;19939;-80
2022/11/03 19:11:11;;;;;;;;;;;11.30;99.90;;;;;;4897913;29;19919;-76
2022/11/03 19:14:02;;;;;;;;;;;11.30;99.90;;;;;;4881327;29;19919;-80
2022/11/03 19:17:03;;;;;;;;;;;;;;;;;;;;;
2022/11/03 19:19:47;;;;;;;;;;;11.30;99.90;;;;;;4897452;29;20276;-79
2022/11/03 19:22:34;;;;;;;;;;;11.50;99.90;;;;;;4864629;29;19927;-79
2022/11/03 19:45:22;;;;;;;;;;;11.30;99.90;;;;;;4860640;29;19920;-74
2022/11/03 19:47:53;;;;;;;;;;;11.30;99.90;;;;;;4860322;29;19980;-73
2022/11/03 19:50:56;;;;;;;;;;;11.20;99.90;;;;;;4847232;29;19927;-74
2022/11/03 19:54:14;;;;;;;;;;;11.20;99.90;;;;;;4860591;29;20310;-77
2022/11/03 22:27:47;;;;;;;;;;;11.10;99.90;;;;;;4919325;29;20272;-74
